MMAS

Jesus Teran International Airport

Aguascalientes, Mexico
TAF MMAS 260424Z 2606/2706 16005KT P6SM SCT100 FM261800 30010KT P6SM SCT040 FM270400 33005KT P6SM SKC
Issued Valid From Valid To
Apr-26 @ 04:24 UTC
(9 hours ago)
Apr-26 @ 06:00 UTC
(8 hours ago)
Apr-27 @ 06:00 UTC
(in 16 hours)
Apr-26 @ 06:00 to Apr-26 @ 18:00
TAF MMAS 260424Z 2606/2706 16005KT P6SM SCT100
Wind Visibility Clouds
160° at 5 knots Greater than 6 miles
  • Scattered at 10,000' AGL
From Apr-26 @ 18:00 to Apr-27 @ 04:00
FM261800 30010KT P6SM SCT040
Wind Visibility Clouds
300° at 10 knots Greater than 6 miles
  • Scattered at 4,000' AGL
From Apr-27 @ 04:00 to Apr-27 @ 06:00
FM270400 33005KT P6SM SKC
Wind Visibility Clouds
330° at 5 knots Greater than 6 miles
  • Clear skies
TAF MMAS 260424Z 2606/2706 16005KT P6SM SCT100 FM261800 30010KT P6SM SCT040 FM270400 33005KT P6SM SKC
Issued Apr-26 @ 04:24 UTC
(9 hours ago)
Valid From Apr-26 @ 06:00 UTC
(8 hours ago)
Valid To Apr-27 @ 06:00 UTC
(in 16 hours)
Apr-26 @ 06:00 - Apr-26 @ 18:00
Wind Visibility
160° at 5 knots Greater than 6 miles
Clouds
  • Scattered at 10,000' AGL
From Apr-26 @ 18:00 - Apr-27 @ 04:00
Wind Visibility
300° at 10 knots Greater than 6 miles
Clouds
  • Scattered at 4,000' AGL
From Apr-27 @ 04:00 - Apr-27 @ 06:00
Wind Visibility
330° at 5 knots Greater than 6 miles
Clouds
  • Clear skies